Anaktuvuk Pass, AK

10:49 PM AKDT on July 27, 2016 (GMT -0800)
Anaktuvuk Pass | | Change Station

Elev 2103 ft 68.13 °N, 151.74 °W | Updated 13 minutes ago

Rain
Rain
55 °F
Feels Like 55 °F
N
8
Wind Variable Wind from SW
Gusts mph

Today
High -- | Low -- °F
--% Chance of Precip.
Yesterday
High -- | Low -- °F
Precip. -- in
Pressure 29.66 in
Visibility 10.0 miles
Clouds
Dew Point 43 °F
Humidity 63%
Rainfall 0.00 in
Snow Depth Not available.
3:56 AM 0:25 AM
Waning Crescent, 35% visible
METAR PAKP 280636Z AUTO 22007KT 10SM 13/06 A2966 RMK AO1
Pressure 29.66 in
Visibility 10.0 miles
Clouds
Dew Point 43 °F
Humidity 63%
Rainfall 0.00 in
Snow Depth Not available.
3:56 AM 0:25 AM
Waning Crescent, 35% visible
METAR PAKP 280636Z AUTO 22007KT 10SM 13/06 A2966 RMK AO1

10-Day Weather Forecast

Almanac

Astronomy

Jul. 27, 2016 Rise Set
Actual Time
Civil Twilight
Nautical Twilight
Astronomical Twilight
Moon
Length of Visible Light
Length of Day
Tomorrow will be .
, % of the Moon is Illuminated

Today's Extremes

State Highs State Lows

Community

WunderPhotos

Upload Photos

1,928,064 photos uploaded!

WunderBlog® & News

Nearby

Air Quality

  Air Quality AQ Index Pollutant
Not available.

Snow Depth

Station Depth Elevation

Earthquake Activity

City Distance Mag. Time & Date
Minimum magnitude displayed is 2.5.

Coastal Water Temperatures

Place Temperature

Stations

Nearby Weather Stations

Station Location Temp. Windchill Dew Point Humidity Wind Precip. Elev Updated Type
                   

Watches & Warnings

There are currently no watches in effect.